createdAt,value
2023-01-02T00:02:53.065Z,4.83
2023-01-02T00:07:56.298Z,5.47
2023-01-02T00:12:59.136Z,4.80
2023-01-02T00:18:06.344Z,4.80
2023-01-02T00:23:12.362Z,5.57
2023-01-02T00:28:15.242Z,6.30
2023-01-02T00:33:19.605Z,7.27
2023-01-02T00:38:22.698Z,6.83
2023-01-02T00:43:25.544Z,7.13
2023-01-02T00:48:30.678Z,7.60
2023-01-02T00:53:36.132Z,7.80
2023-01-02T00:58:38.995Z,9.93
2023-01-02T01:03:44.029Z,9.10
2023-01-02T01:08:47.033Z,8.50
2023-01-02T01:13:58.676Z,8.60
2023-01-02T01:19:02.933Z,9.43
2023-01-02T01:24:06.362Z,8.77
2023-01-02T01:29:09.190Z,8.93
2023-01-02T01:34:36.703Z,8.27
2023-01-02T01:39:42.355Z,9.93
2023-01-02T01:44:47.598Z,10.63
2023-01-02T01:49:53.015Z,9.57
2023-01-02T01:54:59.259Z,8.77
2023-01-02T02:00:26.002Z,10.83
2023-01-02T02:05:31.852Z,10.30
2023-01-02T02:10:37.814Z,11.07
2023-01-02T02:15:45.247Z,10.27
2023-01-02T02:20:55.969Z,11.27
2023-01-02T02:26:29.563Z,9.43
2023-01-02T02:31:37.861Z,8.97
2023-01-02T02:36:42.457Z,10.07
2023-01-02T02:41:49.437Z,9.50
2023-01-02T02:46:57.923Z,10.27
2023-01-02T02:52:05.996Z,10.23
2023-01-02T02:57:09.248Z,11.73
2023-01-02T03:02:16.353Z,12.17
2023-01-02T03:07:23.775Z,10.30
2023-01-02T03:12:35.801Z,10.53
2023-01-02T03:17:50.842Z,11.97
2023-01-02T03:22:56.827Z,9.13
2023-01-02T03:28:01.442Z,11.40
2023-01-02T03:33:11.111Z,11.63
2023-01-02T03:38:20.322Z,11.40
2023-01-02T03:43:26.064Z,9.20
2023-01-02T03:48:34.135Z,8.87
2023-01-02T03:53:38.244Z,11.40
2023-01-02T03:58:46.319Z,10.00
2023-01-02T04:03:52.977Z,10.10
2023-01-02T04:09:01.354Z,9.60
2023-01-02T04:14:10.801Z,9.03
2023-01-02T04:19:18.903Z,9.20
2023-01-02T04:24:25.990Z,8.13
2023-01-02T04:29:30.882Z,6.47
2023-01-02T04:34:37.095Z,3.80
2023-01-02T04:39:40.291Z,2.80
2023-01-02T04:45:08.342Z,3.47
2023-01-02T04:50:12.850Z,4.70
2023-01-02T04:55:15.747Z,3.07
2023-01-02T05:00:18.781Z,3.33
2023-01-02T05:05:22.922Z,3.53
2023-01-02T05:10:25.721Z,2.90
2023-01-02T05:15:29.708Z,2.87
2023-01-02T05:20:33.916Z,2.83
2023-01-02T05:25:37.233Z,2.80
2023-01-02T05:30:40.362Z,3.53
2023-01-02T05:35:44.551Z,4.00
2023-01-02T05:46:13.904Z,3.53
2023-01-02T05:51:18.923Z,3.23
2023-01-02T05:56:21.981Z,1.93
2023-01-02T06:01:26.356Z,3.43
2023-01-02T06:06:33.704Z,3.27
2023-01-02T06:11:37.486Z,3.10
2023-01-02T06:16:40.626Z,2.20
2023-01-02T06:21:44.803Z,2.23
2023-01-02T06:26:47.610Z,1.70
2023-01-02T06:31:51.715Z,1.23
2023-01-02T06:36:56.489Z,1.00
2023-01-02T06:41:59.279Z,1.37
2023-01-02T06:47:02.066Z,1.00
2023-01-02T06:52:06.472Z,1.30
2023-01-02T06:57:09.264Z,1.77
2023-01-02T07:02:12.668Z,1.60
2023-01-02T07:07:17.026Z,1.17
2023-01-02T07:12:19.907Z,1.63
2023-01-02T07:17:22.710Z,2.00
2023-01-02T07:22:27.332Z,1.27
2023-01-02T07:27:30.275Z,1.13
2023-01-02T07:32:33.173Z,1.20
2023-01-02T07:37:37.381Z,1.00
2023-01-02T07:42:40.263Z,1.57
2023-01-02T07:47:43.178Z,1.70
2023-01-02T07:52:47.550Z,1.30
2023-01-02T07:57:53.254Z,1.40
2023-01-02T08:02:56.092Z,1.03
2023-01-02T08:08:00.404Z,1.00
2023-01-02T08:13:03.305Z,1.00
2023-01-02T08:18:06.279Z,1.27
2023-01-02T08:23:10.643Z,1.17
2023-01-02T08:28:13.507Z,1.00
2023-01-02T08:33:16.364Z,1.90
2023-01-02T08:38:20.900Z,1.30
2023-01-02T08:43:23.734Z,2.60
2023-01-02T08:48:26.622Z,1.37
2023-01-02T08:53:31.407Z,1.30
2023-01-02T08:58:34.328Z,1.47
2023-01-02T09:03:37.241Z,3.03
2023-01-02T09:08:41.527Z,1.00
2023-01-02T09:13:45.002Z,1.10
2023-01-02T09:18:47.828Z,1.20
2023-01-02T09:23:52.025Z,1.30
2023-01-02T09:28:54.989Z,1.60
2023-01-02T09:34:00.905Z,6.27
2023-01-02T09:39:05.943Z,4.53
2023-01-02T09:44:12.665Z,1.60
2023-01-02T09:49:17.106Z,1.70
2023-01-02T09:54:25.465Z,1.20
2023-01-02T09:59:31.629Z,2.50
2023-01-02T10:04:43.306Z,1.90
2023-01-02T10:09:54.677Z,3.63
2023-01-02T10:15:00.715Z,18.33
2023-01-02T10:20:06.581Z,6.60
2023-01-02T10:25:15.994Z,6.10
2023-01-02T10:30:21.207Z,3.07
2023-01-02T10:35:32.706Z,7.97
2023-01-02T10:40:37.252Z,6.17
2023-01-02T10:45:40.117Z,4.73
2023-01-02T10:50:45.632Z,5.67
2023-01-02T10:55:52.264Z,4.10
2023-01-02T11:01:05.878Z,3.60
2023-01-02T11:06:30.123Z,2.73
2023-01-02T11:11:36.814Z,2.33
2023-01-02T11:16:41.937Z,2.20
2023-01-02T11:21:46.705Z,2.10
2023-01-02T11:26:51.254Z,2.37
2023-01-02T11:31:59.465Z,2.93
2023-01-02T11:37:06.246Z,3.30
2023-01-02T11:42:38.639Z,2.07
2023-01-02T11:47:43.922Z,1.87
2023-01-02T11:52:54.383Z,2.27
2023-01-02T11:58:01.399Z,2.10
2023-01-02T12:03:07.306Z,2.10
2023-01-02T12:08:16.443Z,2.10
2023-01-02T12:13:38.722Z,1.47
2023-01-02T12:18:58.530Z,1.50
2023-01-02T12:24:15.224Z,2.03
2023-01-02T12:29:48.205Z,1.93
2023-01-02T12:35:01.252Z,2.00
2023-01-02T12:40:09.434Z,1.60
2023-01-02T12:45:21.034Z,2.10
2023-01-02T12:50:34.469Z,2.40
2023-01-02T12:55:47.508Z,2.93
2023-01-02T13:01:15.193Z,3.13
2023-01-02T13:06:44.849Z,2.23
2023-01-02T13:11:46.388Z,2.17
2023-01-02T13:16:52.571Z,2.37
2023-01-02T13:22:00.163Z,2.13
2023-01-02T13:27:03.107Z,2.03
2023-01-02T13:32:07.528Z,2.67
2023-01-02T13:37:13.270Z,2.23
2023-01-02T13:42:42.857Z,1.93
2023-01-02T13:47:51.839Z,1.73
2023-01-02T13:53:21.975Z,2.87
2023-01-02T13:58:40.915Z,1.70
2023-01-02T14:03:47.810Z,1.67
2023-01-02T14:09:09.026Z,2.10
2023-01-02T14:14:13.714Z,2.13
2023-01-02T14:19:25.080Z,1.80
2023-01-02T14:24:31.277Z,1.73
2023-01-02T14:29:42.384Z,1.37
2023-01-02T14:34:49.975Z,1.43
2023-01-02T14:39:52.988Z,1.40
2023-01-02T14:44:58.919Z,1.97
2023-01-02T14:50:04.949Z,1.43
2023-01-02T14:55:13.862Z,1.60
2023-01-02T15:00:29.883Z,3.10
2023-01-02T15:05:37.157Z,1.37
2023-01-02T15:10:56.205Z,1.43
2023-01-02T15:16:00.375Z,1.20
2023-01-02T15:21:08.839Z,1.53
2023-01-02T15:26:31.798Z,1.27
2023-01-02T15:31:40.462Z,1.13
2023-01-02T15:36:44.826Z,1.73
2023-01-02T15:41:50.228Z,1.80
2023-01-02T15:46:53.368Z,1.73
2023-01-02T15:51:58.996Z,2.13
2023-01-02T15:57:06.891Z,2.57
2023-01-02T16:02:19.096Z,2.70
2023-01-02T16:07:27.193Z,2.20
2023-01-02T16:12:30.014Z,2.20
2023-01-02T16:17:35.327Z,2.83
2023-01-02T16:22:45.269Z,3.30
2023-01-02T16:27:51.476Z,2.40
2023-01-02T16:32:54.376Z,3.03
2023-01-02T16:37:59.290Z,3.07
2023-01-02T16:43:03.139Z,2.57
2023-01-02T16:48:07.637Z,2.50
2023-01-02T16:53:17.292Z,2.47
2023-01-02T16:58:20.248Z,2.40
2023-01-02T17:03:26.635Z,2.27
2023-01-02T17:08:31.964Z,1.70
2023-01-02T17:13:34.938Z,1.97
2023-01-02T17:18:37.819Z,3.80
2023-01-02T17:23:42.041Z,2.47
2023-01-02T17:28:44.958Z,2.30
2023-01-02T17:33:47.782Z,2.30
2023-01-02T17:38:52.013Z,2.37
2023-01-02T17:44:02.718Z,2.30
2023-01-02T17:49:06.891Z,2.37
2023-01-02T17:54:12.327Z,2.33
2023-01-02T17:59:19.593Z,4.30
2023-01-02T18:04:22.453Z,2.40
2023-01-02T18:09:26.865Z,2.03
2023-01-02T18:14:29.842Z,3.43
2023-01-02T18:19:34.294Z,2.93
2023-01-02T18:24:38.523Z,2.70
2023-01-02T18:29:41.991Z,2.10
2023-01-02T18:34:48.810Z,3.83
2023-01-02T18:39:55.395Z,3.63
2023-01-02T18:45:00.474Z,2.90
2023-01-02T18:50:24.297Z,2.60
2023-01-02T18:55:34.101Z,3.93
2023-01-02T19:00:41.318Z,2.73
2023-01-02T19:05:45.273Z,2.53
2023-01-02T19:10:53.146Z,2.10
2023-01-02T19:15:58.767Z,3.03
2023-01-02T19:21:11.198Z,2.30
2023-01-02T19:26:20.027Z,3.90
2023-01-02T19:31:25.901Z,3.53
2023-01-02T19:36:36.877Z,2.60
2023-01-02T19:41:58.767Z,4.13
2023-01-02T19:47:02.377Z,4.47
2023-01-02T19:52:06.240Z,3.50
2023-01-02T19:57:11.600Z,2.20
2023-01-02T20:02:15.846Z,2.93
2023-01-02T20:07:18.802Z,2.63
2023-01-02T20:12:34.445Z,3.37
2023-01-02T20:17:38.554Z,2.63
2023-01-02T20:22:43.428Z,1.90
2023-01-02T20:27:48.541Z,2.77
2023-01-02T20:32:51.414Z,2.80
2023-01-02T20:37:54.324Z,2.67
2023-01-02T20:42:58.625Z,2.97
2023-01-02T20:48:01.563Z,2.77
2023-01-02T20:53:04.422Z,2.73
2023-01-02T20:58:09.081Z,2.20
2023-01-02T21:03:13.241Z,2.20
2023-01-02T21:08:16.206Z,2.23
2023-01-02T21:13:20.461Z,1.67
2023-01-02T21:18:25.401Z,2.03
2023-01-02T21:23:29.843Z,1.97
2023-01-02T21:28:34.163Z,1.30
2023-01-02T21:33:37.187Z,1.03
2023-01-02T21:38:40.125Z,1.60
2023-01-02T21:43:44.422Z,1.73
2023-01-02T21:48:47.308Z,1.33
2023-01-02T21:53:50.225Z,1.47
2023-01-02T21:58:55.193Z,1.10
2023-01-02T22:03:58.061Z,1.30
2023-01-02T22:09:01.081Z,2.27
2023-01-02T22:14:05.755Z,1.27
2023-01-02T22:19:08.643Z,1.33
2023-01-02T22:24:11.748Z,1.00
2023-01-02T22:29:16.617Z,1.07
2023-01-02T22:34:20.775Z,1.20
2023-01-02T22:39:28.371Z,1.10
2023-01-02T22:44:33.039Z,0.87
2023-01-02T22:49:37.425Z,0.90
2023-01-02T22:54:40.619Z,0.83
2023-01-02T22:59:44.929Z,0.93
2023-01-02T23:04:48.997Z,1.37
2023-01-02T23:09:51.811Z,0.90
2023-01-02T23:14:56.022Z,1.10
2023-01-02T23:19:58.895Z,1.60
2023-01-02T23:25:04.010Z,0.90
2023-01-02T23:30:09.555Z,1.10
2023-01-02T23:35:12.510Z,0.90
2023-01-02T23:40:15.390Z,1.70
2023-01-02T23:45:19.614Z,1.67
2023-01-02T23:50:22.689Z,1.70
2023-01-02T23:55:25.530Z,1.33
